createdAt,value
2022-09-30T00:01:33.035Z,12.68
2022-09-30T00:03:38.252Z,5.80
2022-09-30T00:05:42.117Z,6.75
2022-09-30T00:07:45.962Z,7.30
2022-09-30T00:09:50.036Z,10.80
2022-09-30T00:11:54.507Z,8.15
2022-09-30T00:13:58.414Z,4.50
2022-09-30T00:16:03.382Z,4.55
2022-09-30T00:18:07.064Z,4.63
2022-09-30T00:20:12.243Z,6.38
2022-09-30T00:22:16.281Z,7.65
2022-09-30T00:24:20.173Z,5.03
2022-09-30T00:26:25.324Z,4.78
2022-09-30T00:28:29.626Z,4.30
2022-09-30T00:30:34.369Z,3.55
2022-09-30T00:32:37.996Z,4.35
2022-09-30T00:34:42.098Z,5.72
2022-09-30T00:36:49.947Z,6.43
2022-09-30T00:38:53.609Z,5.35
2022-09-30T00:40:59.937Z,9.48
2022-09-30T00:43:05.018Z,4.03
2022-09-30T00:45:12.450Z,4.78
2022-09-30T00:47:46.129Z,5.57
2022-09-30T00:49:50.664Z,4.07
2022-09-30T00:51:58.860Z,4.13
2022-09-30T00:54:06.050Z,4.15
2022-09-30T00:56:12.930Z,6.90
2022-09-30T00:58:22.784Z,5.60
2022-09-30T01:00:26.769Z,7.15
2022-09-30T01:02:30.953Z,7.20
2022-09-30T01:04:36.902Z,5.85
2022-09-30T01:06:41.002Z,12.05
2022-09-30T01:08:48.262Z,3.90
2022-09-30T01:10:51.853Z,3.92
2022-09-30T01:12:55.970Z,6.40
2022-09-30T01:15:01.784Z,3.80
2022-09-30T01:17:10.892Z,11.27
2022-09-30T01:19:39.507Z,7.30
2022-09-30T01:22:00.904Z,7.65
2022-09-30T01:24:47.558Z,9.32
2022-09-30T01:27:13.464Z,10.25
2022-09-30T01:29:52.440Z,11.88
2022-09-30T01:32:05.666Z,14.10
2022-09-30T01:34:15.834Z,16.75
2022-09-30T01:36:34.624Z,13.48
2022-09-30T01:38:48.770Z,9.85
2022-09-30T01:41:03.411Z,10.05
2022-09-30T01:43:13.780Z,8.68
2022-09-30T01:45:20.954Z,8.68
2022-09-30T01:47:30.447Z,16.13
2022-09-30T01:49:40.698Z,8.45
2022-09-30T01:51:53.755Z,8.77
2022-09-30T01:54:01.863Z,9.48
2022-09-30T01:56:09.623Z,7.80
2022-09-30T01:58:18.860Z,9.13
2022-09-30T02:00:22.669Z,8.98
2022-09-30T02:02:31.236Z,7.28
2022-09-30T02:04:40.666Z,8.48
2022-09-30T02:06:49.544Z,9.02
2022-09-30T02:08:58.450Z,9.63
2022-09-30T02:11:08.429Z,14.65
2022-09-30T02:13:16.804Z,3.67
2022-09-30T02:15:23.937Z,10.18
2022-09-30T02:17:33.176Z,7.45
2022-09-30T02:19:40.907Z,4.03
2022-09-30T02:21:48.708Z,4.78
2022-09-30T02:23:56.953Z,3.20
2022-09-30T02:26:06.091Z,6.35
2022-09-30T02:28:15.989Z,2.53
2022-09-30T02:30:19.938Z,5.57
2022-09-30T02:32:27.483Z,3.17
2022-09-30T02:34:37.732Z,4.63
2022-09-30T02:36:46.155Z,1.05
2022-09-30T02:38:56.375Z,5.30
2022-09-30T02:41:06.628Z,4.13
2022-09-30T02:43:11.300Z,2.47
2022-09-30T02:45:18.309Z,3.85
2022-09-30T02:47:30.467Z,5.00
2022-09-30T02:49:41.537Z,3.05
2022-09-30T02:51:57.171Z,3.63
2022-09-30T02:54:08.701Z,1.73
2022-09-30T02:56:26.106Z,1.30
2022-09-30T02:58:33.915Z,4.03
2022-09-30T03:00:37.311Z,2.88
2022-09-30T03:02:40.973Z,1.23
2022-09-30T03:04:47.479Z,2.03
2022-09-30T03:06:51.044Z,2.33
2022-09-30T03:08:54.774Z,0.77
2022-09-30T03:10:58.212Z,3.10
2022-09-30T03:13:19.642Z,2.47
2022-09-30T03:15:42.369Z,2.65
2022-09-30T03:18:16.134Z,0.50
2022-09-30T03:20:49.284Z,1.92
2022-09-30T03:23:13.259Z,0.85
2022-09-30T03:25:28.479Z,6.05
2022-09-30T03:27:38.591Z,1.70
2022-09-30T03:29:48.714Z,0.77
2022-09-30T03:32:03.060Z,3.13
2022-09-30T03:34:19.733Z,1.77
2022-09-30T03:36:29.120Z,3.92
2022-09-30T03:38:42.888Z,2.10
2022-09-30T03:40:56.025Z,0.70
2022-09-30T03:43:06.314Z,1.33
2022-09-30T03:45:16.170Z,5.50
2022-09-30T03:47:23.358Z,1.67
2022-09-30T03:49:32.090Z,3.85
2022-09-30T03:51:39.869Z,2.97
2022-09-30T03:53:44.278Z,1.70
2022-09-30T03:55:49.992Z,1.75
2022-09-30T03:57:54.560Z,4.70
2022-09-30T03:59:58.037Z,3.17
2022-09-30T04:02:01.358Z,2.22
2022-09-30T04:04:04.732Z,4.82
2022-09-30T04:06:12.655Z,1.95
2022-09-30T04:08:17.782Z,4.43
2022-09-30T04:10:21.121Z,2.58
2022-09-30T04:12:24.389Z,1.45
2022-09-30T04:14:27.633Z,1.00
2022-09-30T04:16:31.884Z,2.30
2022-09-30T04:18:37.392Z,4.07
2022-09-30T04:20:40.811Z,1.92
2022-09-30T04:22:44.183Z,1.05
2022-09-30T04:24:48.796Z,1.02
2022-09-30T04:26:52.924Z,3.63
2022-09-30T04:28:58.759Z,1.60
2022-09-30T04:31:02.237Z,2.00
2022-09-30T04:33:05.517Z,0.88
2022-09-30T04:35:09.317Z,1.20
2022-09-30T04:37:13.962Z,1.05
2022-09-30T04:39:17.244Z,2.85
2022-09-30T04:41:22.254Z,1.38
2022-09-30T04:43:26.923Z,2.10
2022-09-30T04:45:30.373Z,4.25
2022-09-30T04:47:33.622Z,0.98
2022-09-30T04:49:37.168Z,4.30
2022-09-30T04:51:44.045Z,3.22
2022-09-30T04:53:47.999Z,2.55
2022-09-30T04:55:51.405Z,0.70
2022-09-30T04:57:56.024Z,2.30
2022-09-30T04:59:59.563Z,2.47
2022-09-30T05:02:03.246Z,0.65
2022-09-30T05:04:06.566Z,1.75
2022-09-30T05:06:10.773Z,0.73
2022-09-30T05:08:14.161Z,5.35
2022-09-30T05:10:17.678Z,1.20
2022-09-30T05:12:20.995Z,3.50
2022-09-30T05:14:25.612Z,1.65
2022-09-30T05:16:29.155Z,3.13
2022-09-30T05:18:34.199Z,1.00
2022-09-30T05:20:37.433Z,2.15
2022-09-30T05:22:40.777Z,4.00
2022-09-30T05:24:44.281Z,1.73
2022-09-30T05:26:47.568Z,3.72
2022-09-30T05:28:50.926Z,5.68
2022-09-30T05:30:59.657Z,4.72
2022-09-30T05:33:03.037Z,1.45
2022-09-30T05:35:06.991Z,1.27
2022-09-30T05:37:10.793Z,2.05
2022-09-30T05:39:14.298Z,1.20
2022-09-30T05:41:19.684Z,1.05
2022-09-30T05:43:23.958Z,1.30
2022-09-30T05:45:28.186Z,1.23
2022-09-30T05:47:32.877Z,1.77
2022-09-30T05:49:36.073Z,1.55
2022-09-30T05:51:39.681Z,1.42
2022-09-30T05:53:43.659Z,3.88
2022-09-30T05:55:48.128Z,2.85
2022-09-30T05:57:53.141Z,2.03
2022-09-30T05:59:57.925Z,1.00
2022-09-30T06:02:01.625Z,1.35
2022-09-30T06:04:06.497Z,1.50
2022-09-30T06:06:09.862Z,2.30
2022-09-30T06:08:13.716Z,1.20
2022-09-30T06:10:17.010Z,1.88
2022-09-30T06:12:20.351Z,0.60
2022-09-30T06:14:23.561Z,4.28
2022-09-30T06:16:26.946Z,1.40
2022-09-30T06:18:31.210Z,0.50
2022-09-30T06:20:35.988Z,0.40
2022-09-30T06:22:39.533Z,1.45
2022-09-30T06:24:43.007Z,2.85
2022-09-30T06:26:46.280Z,1.95
2022-09-30T06:28:50.430Z,1.58
2022-09-30T06:30:53.666Z,0.32
2022-09-30T06:32:58.407Z,0.30
2022-09-30T06:35:03.331Z,0.98
2022-09-30T06:37:08.001Z,1.75
2022-09-30T06:39:13.703Z,0.40
2022-09-30T06:41:18.010Z,1.77
2022-09-30T06:43:22.036Z,4.20
2022-09-30T06:45:32.156Z,1.63
2022-09-30T06:47:36.141Z,1.13
2022-09-30T06:49:48.002Z,0.20
2022-09-30T06:53:57.415Z,1.35
2022-09-30T06:56:00.817Z,1.02
2022-09-30T06:58:04.432Z,0.80
2022-09-30T07:00:09.191Z,4.90
2022-09-30T07:02:13.489Z,0.20
2022-09-30T07:04:17.036Z,1.35
2022-09-30T07:06:20.372Z,0.68
2022-09-30T07:08:25.911Z,1.65
2022-09-30T07:10:30.714Z,1.02
2022-09-30T07:12:34.565Z,0.88
2022-09-30T07:14:38.250Z,0.20
2022-09-30T07:16:44.847Z,1.52
2022-09-30T07:18:48.388Z,0.77
2022-09-30T07:20:53.461Z,0.77
2022-09-30T07:22:59.003Z,0.77
2022-09-30T07:25:04.232Z,1.92
2022-09-30T07:27:09.032Z,1.33
2022-09-30T07:29:14.037Z,2.50
2022-09-30T07:31:32.565Z,1.40
2022-09-30T07:33:36.737Z,2.92
2022-09-30T07:35:39.975Z,0.38
2022-09-30T07:37:43.290Z,3.25
2022-09-30T07:39:49.057Z,3.60
2022-09-30T07:41:55.034Z,3.65
2022-09-30T07:43:59.993Z,0.43
2022-09-30T07:46:09.154Z,2.38
2022-09-30T07:48:32.788Z,3.80
2022-09-30T07:52:39.533Z,3.10
2022-09-30T07:54:49.539Z,3.50
2022-09-30T07:57:11.102Z,1.70
2022-09-30T07:59:16.692Z,4.97
2022-09-30T08:01:20.200Z,8.43
2022-09-30T08:03:23.505Z,2.05
2022-09-30T08:05:26.750Z,1.33
2022-09-30T08:07:30.221Z,1.67
2022-09-30T08:09:33.590Z,3.60
2022-09-30T08:11:38.370Z,1.98
2022-09-30T08:13:42.030Z,3.65
2022-09-30T08:15:46.783Z,1.42
2022-09-30T08:17:50.056Z,1.38
2022-09-30T08:19:53.418Z,3.78
2022-09-30T08:21:56.814Z,0.63
2022-09-30T08:24:00.201Z,1.20
2022-09-30T08:26:05.234Z,1.85
2022-09-30T08:28:09.020Z,0.57
2022-09-30T08:30:13.274Z,1.88
2022-09-30T08:32:18.089Z,0.80
2022-09-30T08:34:21.750Z,0.55
2022-09-30T08:36:27.579Z,0.38
2022-09-30T08:38:31.129Z,0.30
2022-09-30T08:40:40.583Z,0.20
2022-09-30T08:43:04.439Z,2.95
2022-09-30T08:45:18.506Z,1.27
2022-09-30T08:47:40.052Z,2.17
2022-09-30T08:49:55.882Z,1.02
2022-09-30T08:52:01.427Z,1.45
2022-09-30T08:54:08.219Z,1.00
2022-09-30T08:56:21.920Z,0.80
2022-09-30T08:58:29.574Z,3.42
2022-09-30T09:00:33.245Z,1.13
2022-09-30T09:02:45.321Z,1.10
2022-09-30T09:04:52.741Z,0.75
2022-09-30T09:07:06.768Z,0.00
2022-09-30T09:09:32.974Z,0.32
2022-09-30T09:12:01.081Z,1.27
2022-09-30T09:14:09.440Z,0.05
2022-09-30T09:16:21.314Z,0.00
2022-09-30T09:18:53.655Z,0.10
2022-09-30T09:21:00.018Z,1.55
2022-09-30T09:23:05.501Z,0.10
2022-09-30T09:25:14.603Z,1.70
2022-09-30T09:27:25.001Z,0.13
2022-09-30T09:29:40.958Z,1.60
2022-09-30T09:31:44.519Z,0.10
2022-09-30T09:33:48.438Z,1.60
2022-09-30T09:35:59.768Z,2.53
2022-09-30T09:38:26.763Z,0.10
2022-09-30T09:40:40.219Z,0.68
2022-09-30T09:42:58.905Z,0.60
2022-09-30T09:45:05.973Z,0.85
2022-09-30T09:47:15.233Z,0.50
2022-09-30T09:49:36.442Z,0.73
2022-09-30T09:51:47.388Z,2.20
2022-09-30T09:53:53.047Z,3.80
2022-09-30T09:56:00.283Z,1.30
2022-09-30T09:58:09.169Z,0.82
2022-09-30T10:00:31.646Z,1.33
2022-09-30T10:02:35.034Z,2.15
2022-09-30T10:04:51.123Z,0.82
2022-09-30T10:07:00.027Z,3.92
2022-09-30T10:09:03.415Z,1.02
2022-09-30T10:11:08.774Z,0.52
2022-09-30T10:13:18.063Z,2.58
2022-09-30T10:15:23.483Z,2.78
2022-09-30T10:17:30.209Z,3.28
2022-09-30T10:19:35.815Z,1.38
2022-09-30T10:21:39.099Z,3.25
2022-09-30T10:23:43.793Z,0.43
2022-09-30T10:26:00.700Z,0.95
2022-09-30T10:28:21.613Z,1.33
2022-09-30T10:30:39.613Z,0.40
2022-09-30T10:32:42.875Z,0.17
2022-09-30T10:34:46.321Z,0.43
2022-09-30T10:36:50.324Z,1.67
2022-09-30T10:39:03.979Z,0.88
2022-09-30T10:41:10.177Z,0.32
2022-09-30T10:43:23.090Z,0.20
2022-09-30T10:45:32.908Z,1.83
2022-09-30T10:47:37.400Z,2.22
2022-09-30T10:49:46.729Z,0.15
2022-09-30T10:51:50.143Z,0.30
2022-09-30T10:53:53.596Z,0.68
2022-09-30T10:55:58.556Z,1.52
2022-09-30T10:58:21.094Z,0.20
2022-09-30T11:00:27.628Z,0.28
2022-09-30T11:02:37.018Z,1.65
2022-09-30T11:04:47.977Z,0.20
2022-09-30T11:06:55.554Z,1.17
2022-09-30T11:09:03.229Z,0.10
2022-09-30T11:11:14.370Z,0.30
2022-09-30T11:13:23.222Z,0.55
2022-09-30T11:15:34.473Z,0.10
2022-09-30T11:17:43.228Z,1.38
2022-09-30T11:19:52.556Z,0.82
2022-09-30T11:22:00.386Z,0.63
2022-09-30T11:24:09.581Z,1.23
2022-09-30T11:26:25.548Z,0.10
2022-09-30T11:28:45.036Z,1.25
2022-09-30T11:30:57.930Z,0.85
2022-09-30T11:33:19.247Z,0.10
2022-09-30T11:35:45.379Z,0.50
2022-09-30T11:38:02.981Z,0.80
2022-09-30T11:40:31.924Z,0.20
2022-09-30T11:42:43.992Z,0.30
2022-09-30T11:44:48.429Z,0.20
2022-09-30T11:47:33.382Z,0.75
2022-09-30T11:50:06.098Z,0.43
2022-09-30T11:52:17.645Z,2.58
2022-09-30T11:54:35.299Z,1.25
2022-09-30T11:56:48.466Z,0.85
2022-09-30T12:01:07.699Z,0.73
2022-09-30T12:03:17.722Z,0.20
2022-09-30T12:05:25.414Z,0.55
2022-09-30T12:07:40.213Z,0.93
2022-09-30T12:09:48.912Z,0.90
2022-09-30T12:11:57.924Z,2.22
2022-09-30T12:14:06.862Z,0.68
2022-09-30T12:16:16.295Z,0.25
2022-09-30T12:18:24.108Z,0.15
2022-09-30T12:20:31.718Z,2.03
2022-09-30T12:22:40.748Z,0.30
2022-09-30T12:24:45.828Z,0.35
2022-09-30T12:26:49.649Z,0.82
2022-09-30T12:29:16.337Z,1.50
2022-09-30T12:32:01.668Z,4.03
2022-09-30T12:34:22.271Z,0.77
2022-09-30T12:36:41.258Z,5.07
2022-09-30T12:39:12.574Z,3.53
2022-09-30T12:41:39.397Z,8.70
2022-09-30T12:44:17.227Z,5.25
2022-09-30T12:46:41.036Z,6.53
2022-09-30T12:48:51.792Z,9.52
2022-09-30T12:50:58.526Z,9.77
2022-09-30T12:53:14.663Z,9.10
2022-09-30T12:55:28.402Z,7.07
2022-09-30T12:57:36.731Z,11.75
2022-09-30T12:59:48.755Z,12.77
2022-09-30T13:01:52.785Z,14.57
2022-09-30T13:07:25.129Z,11.52
2022-09-30T13:09:35.582Z,17.45
2022-09-30T13:11:42.314Z,16.17
2022-09-30T13:14:01.162Z,11.75
2022-09-30T13:16:06.949Z,15.95
2022-09-30T13:18:48.047Z,10.20
2022-09-30T13:20:55.557Z,18.35
2022-09-30T13:23:00.663Z,18.33
2022-09-30T13:25:14.605Z,12.63
2022-09-30T13:27:18.352Z,16.60
2022-09-30T13:29:40.148Z,15.15
2022-09-30T13:32:05.762Z,16.23
2022-09-30T13:34:13.606Z,19.75
2022-09-30T13:36:29.459Z,11.43
2022-09-30T13:38:41.796Z,22.77
2022-09-30T13:41:01.867Z,15.48
2022-09-30T13:43:06.958Z,13.93
2022-09-30T13:45:17.819Z,14.20
2022-09-30T13:47:29.273Z,19.15
2022-09-30T13:49:44.040Z,11.63
2022-09-30T13:51:48.900Z,11.23
2022-09-30T13:53:57.298Z,18.50
2022-09-30T13:56:06.704Z,16.50
2022-09-30T13:58:30.762Z,18.80
2022-09-30T14:00:51.315Z,14.70
2022-09-30T14:03:22.293Z,16.40
2022-09-30T14:05:43.789Z,16.35
2022-09-30T14:08:06.309Z,15.25
2022-09-30T14:10:29.259Z,20.35
2022-09-30T14:12:45.785Z,15.55
2022-09-30T14:15:09.589Z,19.27
2022-09-30T14:17:30.373Z,17.95
2022-09-30T14:20:02.829Z,10.00
2022-09-30T14:22:08.981Z,11.00
2022-09-30T14:24:16.371Z,16.27
2022-09-30T14:26:43.060Z,17.20
2022-09-30T14:28:55.480Z,13.23
2022-09-30T14:31:09.744Z,12.40
2022-09-30T14:33:24.665Z,11.68
2022-09-30T14:35:30.148Z,9.90
2022-09-30T14:37:38.711Z,9.45
2022-09-30T14:39:43.357Z,7.60
2022-09-30T14:41:54.595Z,11.52
2022-09-30T14:44:03.145Z,5.55
2022-09-30T14:46:10.354Z,12.23
2022-09-30T14:48:18.679Z,5.38
2022-09-30T14:50:26.342Z,6.82
2022-09-30T14:52:38.561Z,8.30
2022-09-30T14:54:49.052Z,7.45
2022-09-30T14:56:55.520Z,11.48
2022-09-30T14:59:01.197Z,7.22
2022-09-30T15:01:08.513Z,5.72
2022-09-30T15:03:14.404Z,8.85
2022-09-30T15:05:19.649Z,5.40
2022-09-30T15:07:23.778Z,6.20
2022-09-30T15:09:32.703Z,3.63
2022-09-30T15:11:39.709Z,8.30
2022-09-30T15:13:45.346Z,9.45
2022-09-30T15:15:49.084Z,10.77
2022-09-30T15:17:55.689Z,8.82
2022-09-30T15:20:00.284Z,6.72
2022-09-30T15:22:06.540Z,10.80
2022-09-30T15:24:12.539Z,8.65
2022-09-30T15:26:17.115Z,11.55
2022-09-30T15:28:20.964Z,16.15
2022-09-30T15:30:29.524Z,11.60
2022-09-30T15:32:35.803Z,10.30
2022-09-30T15:34:40.061Z,9.50
2022-09-30T15:36:45.162Z,8.90
2022-09-30T15:38:51.863Z,14.88
2022-09-30T15:41:00.822Z,11.55
2022-09-30T15:43:07.429Z,12.07
2022-09-30T15:45:35.018Z,13.55
2022-09-30T15:47:56.385Z,12.45
2022-09-30T15:50:01.102Z,11.50
2022-09-30T15:52:30.741Z,11.35
2022-09-30T15:54:39.525Z,15.70
2022-09-30T15:56:46.463Z,15.70
2022-09-30T15:58:57.541Z,19.35
2022-09-30T16:01:15.823Z,8.15
2022-09-30T16:03:29.265Z,9.70
2022-09-30T16:05:33.884Z,12.55
2022-09-30T16:07:37.676Z,10.75
2022-09-30T16:09:42.979Z,11.20
2022-09-30T16:11:54.292Z,11.90
2022-09-30T16:13:59.938Z,9.40
2022-09-30T16:16:04.028Z,13.38
2022-09-30T16:18:20.436Z,10.15
2022-09-30T16:20:26.458Z,11.73
2022-09-30T16:22:49.674Z,12.90
2022-09-30T16:25:02.877Z,12.38
2022-09-30T16:27:23.813Z,9.80
2022-09-30T16:29:28.718Z,11.60
2022-09-30T16:31:34.309Z,10.82
2022-09-30T16:33:43.948Z,10.30
2022-09-30T16:35:48.820Z,14.93
2022-09-30T16:37:59.507Z,12.75
2022-09-30T16:40:16.681Z,14.57
2022-09-30T16:42:20.992Z,11.73
2022-09-30T16:44:24.733Z,11.73
2022-09-30T16:46:28.844Z,14.40
2022-09-30T16:48:32.757Z,8.93
2022-09-30T16:50:41.744Z,8.95
2022-09-30T16:52:45.400Z,15.20
2022-09-30T16:54:49.170Z,16.27
2022-09-30T16:56:53.477Z,17.38
2022-09-30T16:59:00.347Z,13.02
2022-09-30T17:01:04.509Z,12.85
2022-09-30T17:03:08.503Z,20.92
2022-09-30T17:05:16.354Z,14.82
2022-09-30T17:07:21.715Z,12.10
2022-09-30T17:09:26.745Z,15.38
2022-09-30T17:11:33.439Z,15.73
2022-09-30T17:13:37.272Z,20.23
2022-09-30T17:15:42.760Z,16.08
2022-09-30T17:17:46.674Z,12.07
2022-09-30T17:19:50.501Z,14.23
2022-09-30T17:21:54.199Z,14.95
2022-09-30T17:23:59.704Z,14.32
2022-09-30T17:26:06.171Z,22.00
2022-09-30T17:28:11.327Z,16.30
2022-09-30T17:30:15.786Z,14.57
2022-09-30T17:32:19.649Z,11.52
2022-09-30T17:34:24.281Z,17.58
2022-09-30T17:36:27.909Z,11.57
2022-09-30T17:38:32.084Z,18.23
2022-09-30T17:40:54.667Z,14.00
2022-09-30T17:43:11.259Z,19.85
2022-09-30T17:45:15.380Z,25.85
2022-09-30T17:47:19.084Z,22.38
2022-09-30T17:49:24.304Z,20.63
2022-09-30T17:51:28.066Z,19.98
2022-09-30T17:53:31.977Z,15.38
2022-09-30T17:55:37.120Z,15.77
2022-09-30T17:57:41.023Z,10.02
2022-09-30T17:59:46.771Z,15.23
2022-09-30T18:01:51.209Z,17.65
2022-09-30T18:03:59.550Z,14.90
2022-09-30T18:06:04.112Z,18.55
2022-09-30T18:08:07.871Z,16.88
2022-09-30T18:10:12.896Z,23.58
2022-09-30T18:12:18.445Z,11.85
2022-09-30T18:14:22.213Z,10.30
2022-09-30T18:16:30.456Z,15.77
2022-09-30T18:18:35.981Z,17.58
2022-09-30T18:20:45.062Z,10.88
2022-09-30T18:22:49.143Z,17.88
2022-09-30T18:25:09.830Z,25.63
2022-09-30T18:27:13.893Z,29.10
2022-09-30T18:29:20.536Z,27.60
2022-09-30T18:31:29.148Z,20.38
2022-09-30T18:33:32.849Z,25.52
2022-09-30T18:35:38.658Z,21.65
2022-09-30T18:37:43.391Z,9.98
2022-09-30T18:39:47.114Z,21.80
2022-09-30T18:41:50.678Z,9.70
2022-09-30T18:43:59.956Z,31.00
2022-09-30T18:46:05.574Z,12.52
2022-09-30T18:48:11.147Z,13.85
2022-09-30T18:50:16.368Z,12.85
2022-09-30T18:52:20.140Z,13.90
2022-09-30T18:54:24.494Z,10.60
2022-09-30T18:56:32.153Z,18.52
2022-09-30T18:58:37.031Z,12.70
2022-09-30T19:00:41.334Z,19.40
2022-09-30T19:02:46.824Z,11.93
2022-09-30T19:04:50.792Z,15.68
2022-09-30T19:06:54.546Z,12.70
2022-09-30T19:08:59.171Z,17.40
2022-09-30T19:11:13.035Z,17.10
2022-09-30T19:13:17.002Z,10.23
2022-09-30T19:15:21.122Z,14.98
2022-09-30T19:17:26.556Z,13.50
2022-09-30T19:19:32.540Z,19.83
2022-09-30T19:21:37.193Z,15.65
2022-09-30T19:23:41.257Z,20.27
2022-09-30T19:25:45.632Z,15.52
2022-09-30T19:27:50.282Z,12.30
2022-09-30T19:29:58.568Z,15.07
2022-09-30T19:32:03.915Z,18.45
2022-09-30T19:34:08.545Z,8.68
2022-09-30T19:36:15.392Z,8.80
2022-09-30T19:38:24.450Z,12.23
2022-09-30T19:42:42.834Z,16.17
2022-09-30T19:44:46.739Z,11.80
2022-09-30T19:46:51.760Z,10.73
2022-09-30T19:48:56.049Z,11.02
2022-09-30T19:51:00.355Z,15.32
2022-09-30T19:53:05.591Z,19.33
2022-09-30T19:55:16.306Z,11.30
2022-09-30T19:57:20.819Z,12.98
2022-09-30T19:59:25.936Z,15.45
2022-09-30T20:01:31.374Z,18.10
2022-09-30T20:03:36.802Z,15.55
2022-09-30T20:05:44.207Z,15.18
2022-09-30T20:07:51.435Z,19.88
2022-09-30T20:09:57.237Z,26.42
2022-09-30T20:12:01.042Z,17.02
2022-09-30T20:14:24.118Z,15.77
2022-09-30T20:16:28.243Z,17.13
2022-09-30T20:18:32.686Z,15.55
2022-09-30T20:20:35.359Z,16.60
2022-09-30T20:22:39.402Z,13.82
2022-09-30T20:24:43.215Z,20.58
2022-09-30T20:26:50.462Z,11.15
2022-09-30T20:28:57.973Z,15.63
2022-09-30T20:31:07.573Z,20.77
2022-09-30T20:33:11.384Z,21.15
2022-09-30T20:35:15.055Z,19.40
2022-09-30T20:37:18.939Z,21.98
2022-09-30T20:39:23.913Z,26.52
2022-09-30T20:41:28.478Z,19.23
2022-09-30T20:43:35.851Z,19.70
2022-09-30T20:45:41.246Z,28.63
2022-09-30T20:47:46.107Z,22.58
2022-09-30T20:49:49.923Z,29.95
2022-09-30T20:51:53.607Z,23.50
2022-09-30T20:53:59.109Z,17.45
2022-09-30T20:56:03.256Z,24.80
2022-09-30T20:58:08.776Z,23.95
2022-09-30T21:00:16.390Z,24.40
2022-09-30T21:02:24.478Z,24.60
2022-09-30T21:04:28.386Z,25.55
2022-09-30T21:06:33.505Z,20.58
2022-09-30T21:08:39.306Z,28.83
2022-09-30T21:10:43.022Z,24.17
2022-09-30T21:12:46.720Z,26.35
2022-09-30T21:14:50.684Z,27.77
2022-09-30T21:16:55.955Z,24.48
2022-09-30T21:19:00.250Z,29.77
2022-09-30T21:21:04.676Z,21.50
2022-09-30T21:23:08.484Z,22.65
2022-09-30T21:25:13.404Z,24.15
2022-09-30T21:27:17.437Z,26.15
2022-09-30T21:29:22.462Z,32.80
2022-09-30T21:31:27.775Z,26.10
2022-09-30T21:33:33.133Z,22.15
2022-09-30T21:35:36.997Z,25.30
2022-09-30T21:37:40.783Z,23.27
2022-09-30T21:39:48.258Z,23.25
2022-09-30T21:41:51.808Z,27.33
2022-09-30T21:43:56.037Z,24.95
2022-09-30T21:46:01.584Z,24.00
2022-09-30T21:48:10.581Z,20.23
2022-09-30T21:50:15.836Z,18.17
2022-09-30T21:52:19.533Z,19.98
2022-09-30T21:54:23.534Z,21.70
2022-09-30T21:56:28.279Z,17.92
2022-09-30T21:58:33.862Z,24.67
2022-09-30T22:00:37.771Z,20.95
2022-09-30T22:02:41.789Z,29.17
2022-09-30T22:04:45.632Z,27.65
2022-09-30T22:06:51.381Z,14.18
2022-09-30T22:08:55.192Z,22.88
2022-09-30T22:10:58.814Z,16.63
2022-09-30T22:13:03.059Z,23.80
2022-09-30T22:15:07.513Z,25.92
2022-09-30T22:17:11.255Z,25.35
2022-09-30T22:19:14.927Z,24.50
2022-09-30T22:21:18.857Z,21.90
2022-09-30T22:23:23.792Z,20.92
2022-09-30T22:25:30.878Z,16.77
2022-09-30T22:27:35.065Z,20.70
2022-09-30T22:29:38.698Z,17.50
2022-09-30T22:31:42.576Z,16.02
2022-09-30T22:34:04.358Z,16.35
2022-09-30T22:36:25.189Z,16.90
2022-09-30T22:38:30.713Z,18.80
2022-09-30T22:40:34.621Z,17.55
2022-09-30T22:42:38.922Z,28.45
2022-09-30T22:44:42.812Z,27.42
2022-09-30T22:46:46.765Z,20.95
2022-09-30T22:48:50.748Z,21.25
2022-09-30T22:50:54.566Z,23.23
2022-09-30T22:52:58.293Z,27.40
2022-09-30T22:55:03.424Z,21.83
2022-09-30T22:57:09.347Z,20.00
2022-09-30T22:59:13.091Z,20.05
2022-09-30T23:01:16.770Z,27.80
2022-09-30T23:03:20.289Z,24.60
2022-09-30T23:05:26.331Z,25.60
2022-09-30T23:07:29.914Z,24.08
2022-09-30T23:09:33.797Z,16.15
2022-09-30T23:11:39.441Z,29.10
2022-09-30T23:13:43.079Z,25.45
2022-09-30T23:15:46.583Z,17.42
2022-09-30T23:17:50.311Z,24.73
2022-09-30T23:19:54.253Z,20.70
2022-09-30T23:21:58.095Z,19.15
2022-09-30T23:24:02.271Z,26.13
2022-09-30T23:26:08.363Z,26.77
2022-09-30T23:28:13.865Z,22.33
2022-09-30T23:30:18.098Z,22.63
2022-09-30T23:32:21.775Z,25.92
2022-09-30T23:34:25.516Z,17.40
2022-09-30T23:36:31.444Z,19.17
2022-09-30T23:38:35.674Z,12.80
2022-09-30T23:40:44.355Z,17.02
2022-09-30T23:42:51.562Z,18.73
2022-09-30T23:44:56.952Z,17.50
2022-09-30T23:47:17.889Z,18.30
2022-09-30T23:49:21.599Z,14.85
2022-09-30T23:51:25.285Z,13.82
2022-09-30T23:53:29.227Z,28.27
2022-09-30T23:55:32.929Z,17.27
2022-09-30T23:57:36.503Z,20.88
2022-09-30T23:59:40.200Z,21.70
